Time;durP1;ratioP1;P1;durP2;ratioP2;P2;SDS_P1;SDS_P2;PMS_P1;PMS_P2;Temp;Humidity;BMP_temperature;BMP_pressure;BME280_temperature;BME280_humidity;BME280_pressure;Samples;Min_cycle;Max_cycle;Signal;HPM_P1;HPM_P2
2021/05/12 00:00:34;;;;;;;5.43;4.93;;;18.60;99.90;;;;;;5051732;28;20441;-47
2021/05/12 00:03:00;;;;;;;6.03;5.53;;;18.50;99.90;;;;;;5051278;28;20483;-47
2021/05/12 00:05:28;;;;;;;6.00;5.50;;;18.80;99.90;;;;;;5051784;28;20480;-48
2021/05/12 00:07:54;;;;;;;6.53;5.27;;;18.70;99.90;;;;;;5051642;28;20532;-48
2021/05/12 00:10:22;;;;;;;7.60;6.90;;;18.60;99.90;;;;;;5051788;28;20945;-48
2021/05/12 00:12:48;;;;;;;6.97;6.20;;;18.40;99.90;;;;;;5051463;28;20429;-47
2021/05/12 00:15:16;;;;;;;7.40;6.70;;;18.60;99.90;;;;;;5051765;28;20434;-47
2021/05/12 00:17:45;;;;;;;8.83;6.63;;;18.40;99.90;;;;;;5051476;28;20446;-47
2021/05/12 00:20:16;;;;;;;7.10;6.50;;;18.50;99.90;;;;;;5051787;28;20453;-46
2021/05/12 00:22:47;;;;;;;6.50;6.00;;;18.30;99.90;;;;;;5051265;28;20494;-46
2021/05/12 00:25:14;;;;;;;6.90;6.40;;;18.40;99.90;;;;;;5051825;28;20572;-47
2021/05/12 00:27:40;;;;;;;8.10;7.40;;;18.40;99.90;;;;;;5051520;28;20487;-47
2021/05/12 00:30:09;;;;;;;8.30;7.60;;;18.40;99.90;;;;;;5051267;28;20501;-47
2021/05/12 00:32:35;;;;;;;9.27;8.43;;;18.20;99.90;;;;;;5051034;28;20494;-47
2021/05/12 00:35:02;;;;;;;9.87;8.97;;;18.30;99.90;;;;;;5051515;28;20433;-47
2021/05/12 00:37:28;;;;;;;10.70;9.70;;;18.10;99.90;;;;;;5051402;28;20465;-48
2021/05/12 00:39:55;;;;;;;12.97;9.90;;;17.90;99.90;;;;;;5051310;28;20460;-48
2021/05/12 00:42:21;;;;;;;11.87;9.67;;;18.10;99.90;;;;;;5051175;28;20433;-46
2021/05/12 00:44:47;;;;;;;13.23;10.53;;;18.10;99.90;;;;;;5053275;28;20475;-47
2021/05/12 00:47:13;;;;;;;11.40;10.37;;;17.80;99.90;;;;;;5055366;28;20429;-47
2021/05/12 00:49:40;;;;;;;13.23;11.97;;;17.90;99.90;;;;;;5055361;28;20512;-47
2021/05/12 00:52:06;;;;;;;11.93;10.93;;;17.90;99.90;;;;;;5055493;28;20453;-47
2021/05/12 00:54:32;;;;;;;14.00;12.70;;;17.80;99.90;;;;;;5054786;28;20512;-47
2021/05/12 00:57:00;;;;;;;14.70;13.30;;;17.80;99.90;;;;;;5055233;28;20930;-48
2021/05/12 00:59:32;;;;;;;14.20;12.97;;;17.70;99.90;;;;;;5054947;28;20480;-47
2021/05/12 01:01:58;;;;;;;15.77;12.87;;;17.60;99.90;;;;;;5055229;28;20472;-47
2021/05/12 01:04:25;;;;;;;16.80;14.60;;;17.70;99.90;;;;;;5054657;28;20485;-47
2021/05/12 01:06:51;;;;;;;14.13;12.90;;;17.70;99.90;;;;;;5055098;28;20995;-47
2021/05/12 01:09:17;;;;;;;18.23;15.00;;;17.80;99.90;;;;;;5055036;28;20457;-48
2021/05/12 01:11:44;;;;;;;13.63;12.33;;;17.80;99.90;;;;;;5054845;28;20436;-48
2021/05/12 01:14:11;;;;;;;13.87;11.90;;;17.80;99.90;;;;;;5054550;28;20489;-47
2021/05/12 01:16:38;;;;;;;11.83;10.60;;;17.80;99.90;;;;;;5054897;28;20432;-47
2021/05/12 01:19:04;;;;;;;12.17;10.97;;;18.00;99.90;;;;;;5054874;28;20888;-47
2021/05/12 01:21:31;;;;;;;14.37;9.83;;;18.10;99.90;;;;;;5054715;28;20437;-47
2021/05/12 01:23:58;;;;;;;10.13;9.23;;;17.80;99.90;;;;;;5054269;28;20441;-46
2021/05/12 01:26:24;;;;;;;9.50;8.50;;;17.80;99.90;;;;;;5054824;28;20452;-47
2021/05/12 01:28:53;;;;;;;11.30;8.80;;;17.60;99.90;;;;;;5054417;28;20477;-47
2021/05/12 01:31:22;;;;;;;9.77;8.57;;;17.50;99.90;;;;;;5054690;28;20834;-47
2021/05/12 01:33:50;;;;;;;9.27;8.47;;;17.40;99.90;;;;;;5054181;28;20437;-47
2021/05/12 01:36:18;;;;;;;10.87;9.80;;;17.40;99.90;;;;;;5054425;28;20795;-47
2021/05/12 01:38:47;;;;;;;13.00;11.30;;;17.20;99.90;;;;;;5054313;28;20460;-47
2021/05/12 01:41:13;;;;;;;12.93;11.53;;;17.10;99.90;;;;;;5054275;28;20438;-47
2021/05/12 01:43:41;;;;;;;10.20;9.30;;;17.40;99.90;;;;;;5054078;28;20437;-47
2021/05/12 01:46:08;;;;;;;9.03;8.13;;;17.40;99.90;;;;;;5036013;28;20491;-47
2021/05/12 01:48:35;;;;;;;10.73;8.63;;;17.40;99.90;;;;;;5054411;28;20445;-48
2021/05/12 01:51:02;;;;;;;8.10;7.23;;;17.10;99.90;;;;;;5054011;28;20983;-48
2021/05/12 01:53:28;;;;;;;9.60;8.67;;;17.10;99.90;;;;;;5053673;28;20420;-48
2021/05/12 01:55:55;;;;;;;9.07;7.30;;;17.20;99.90;;;;;;5053762;28;20430;-47
2021/05/12 01:58:22;;;;;;;10.57;9.03;;;17.40;99.90;;;;;;5053877;28;20457;-48
2021/05/12 02:00:50;;;;;;;10.63;9.70;;;17.20;99.90;;;;;;5053906;28;20449;-48
2021/05/12 02:03:18;;;;;;;10.70;8.90;;;17.10;99.90;;;;;;5053523;28;20436;-47
2021/05/12 02:05:44;;;;;;;10.13;8.00;;;17.00;99.90;;;;;;5053825;28;20476;-47
2021/05/12 02:08:13;;;;;;;7.63;6.90;;;17.00;99.90;;;;;;5053669;28;20530;-48
2021/05/12 02:10:41;;;;;;;8.00;7.20;;;17.30;99.90;;;;;;5053749;28;20472;-47
2021/05/12 02:13:08;;;;;;;10.90;8.00;;;17.20;99.90;;;;;;5053488;28;20428;-48
2021/05/12 02:15:35;;;;;;;8.13;7.27;;;16.60;99.90;;;;;;5052736;28;20436;-48
2021/05/12 02:18:01;;;;;;;8.97;8.07;;;17.10;99.90;;;;;;5052880;28;20465;-48
2021/05/12 02:20:29;;;;;;;8.87;7.40;;;17.00;99.90;;;;;;5053895;28;20825;-47
2021/05/12 02:22:56;;;;;;;7.70;6.80;;;17.30;99.90;;;;;;5053467;28;20479;-48
2021/05/12 02:25:22;;;;;;;7.97;7.23;;;16.90;99.90;;;;;;5053712;28;20555;-47
2021/05/12 02:27:49;;;;;;;9.07;7.40;;;17.10;99.90;;;;;;5053453;28;20459;-47
2021/05/12 02:30:16;;;;;;;7.63;6.93;;;16.40;99.90;;;;;;5053644;28;20482;-48
2021/05/12 02:32:43;;;;;;;9.00;7.77;;;16.70;99.90;;;;;;5053288;28;20489;-48
2021/05/12 02:35:11;;;;;;;8.37;7.57;;;16.80;99.90;;;;;;5053162;28;20481;-47
2021/05/12 02:37:37;;;;;;;8.53;7.70;;;16.60;99.90;;;;;;5053225;28;20429;-48
2021/05/12 02:40:05;;;;;;;9.30;8.40;;;16.80;99.90;;;;;;5053037;28;20518;-46
2021/05/12 02:42:31;;;;;;;8.23;7.23;;;16.60;99.90;;;;;;5053303;28;20434;-48
2021/05/12 02:44:57;;;;;;;7.67;6.93;;;16.60;99.90;;;;;;5052867;28;20569;-48
2021/05/12 02:47:24;;;;;;;9.13;7.60;;;16.80;99.90;;;;;;5052979;28;20922;-48
2021/05/12 02:49:51;;;;;;;8.13;7.33;;;17.00;99.90;;;;;;5034877;28;20497;-47
2021/05/12 02:52:17;;;;;;;10.23;8.00;;;16.80;99.90;;;;;;5052643;28;20441;-48
2021/05/12 02:54:44;;;;;;;8.33;7.13;;;16.80;99.90;;;;;;5052856;28;20790;-48
2021/05/12 02:57:11;;;;;;;10.10;6.70;;;16.90;99.90;;;;;;5052717;28;20432;-48
2021/05/12 02:59:37;;;;;;;9.07;8.17;;;17.10;99.90;;;;;;5034938;28;20897;-47
2021/05/12 03:02:03;;;;;;;9.70;6.97;;;16.90;99.90;;;;;;5053029;28;20470;-48
2021/05/12 03:04:31;;;;;;;7.47;6.77;;;16.90;99.90;;;;;;5052467;28;20601;-48
2021/05/12 03:06:57;;;;;;;7.93;7.13;;;16.90;99.90;;;;;;5052024;28;20438;-48
2021/05/12 03:09:24;;;;;;;9.70;7.60;;;16.90;99.90;;;;;;5052813;28;20541;-48
2021/05/12 03:11:50;;;;;;;8.47;7.10;;;16.60;99.90;;;;;;5055070;28;20431;-48
2021/05/12 03:14:17;;;;;;;7.50;6.77;;;16.90;99.90;;;;;;5056322;28;20554;-48
2021/05/12 03:16:43;;;;;;;7.70;6.73;;;16.70;99.90;;;;;;5055153;28;20435;-48
2021/05/12 03:19:10;;;;;;;10.20;7.23;;;16.70;99.90;;;;;;5056325;28;20462;-48
2021/05/12 03:21:37;;;;;;;13.20;8.00;;;16.20;99.90;;;;;;5053432;28;20975;-48
2021/05/12 03:24:05;;;;;;;9.20;7.30;;;16.50;99.90;;;;;;5052180;28;20461;-48
2021/05/12 03:26:34;;;;;;;10.33;7.13;;;16.40;99.90;;;;;;5052526;28;20642;-49
2021/05/12 03:29:01;;;;;;;8.17;7.37;;;16.40;99.90;;;;;;5052143;28;20485;-49
2021/05/12 03:31:27;;;;;;;9.30;6.80;;;16.10;99.90;;;;;;5052091;28;20435;-47
2021/05/12 03:33:56;;;;;;;8.83;6.37;;;16.40;99.90;;;;;;5051763;28;20803;-48
2021/05/12 03:36:22;;;;;;;8.10;6.70;;;16.40;99.90;;;;;;5052090;28;20438;-48
2021/05/12 03:38:50;;;;;;;7.63;6.83;;;16.40;99.90;;;;;;5051952;28;20474;-48
2021/05/12 03:41:16;;;;;;;8.50;7.03;;;16.30;99.90;;;;;;5052125;28;20458;-48
2021/05/12 03:43:43;;;;;;;7.73;5.90;;;16.60;99.90;;;;;;5051701;28;20458;-49
2021/05/12 03:46:09;;;;;;;6.73;6.03;;;16.50;99.90;;;;;;5051796;28;20478;-48
2021/05/12 03:48:35;;;;;;;6.43;5.00;;;16.40;99.90;;;;;;5051877;28;20513;-48
2021/05/12 03:51:01;;;;;;;6.90;6.20;;;16.60;99.90;;;;;;5033767;28;20576;-48
2021/05/12 03:53:28;;;;;;;5.67;4.80;;;16.50;99.90;;;;;;5051655;28;20427;-48
2021/05/12 03:55:55;;;;;;;7.87;4.90;;;16.20;99.90;;;;;;5051804;28;20497;-48
2021/05/12 03:58:21;;;;;;;7.00;4.70;;;16.20;99.90;;;;;;5051658;28;20447;-48
2021/05/12 04:00:48;;;;;;;6.17;4.73;;;16.30;99.90;;;;;;5051749;28;20450;-48
2021/05/12 04:03:14;;;;;;;9.17;4.90;;;16.20;99.90;;;;;;5051620;28;20816;-48
2021/05/12 04:05:41;;;;;;;7.90;5.63;;;16.50;99.90;;;;;;5051406;28;20502;-48
2021/05/12 04:08:07;;;;;;;8.77;5.00;;;16.00;99.90;;;;;;5051507;28;20489;-48
2021/05/12 04:10:34;;;;;;;6.50;4.43;;;16.10;99.90;;;;;;5051515;28;20435;-49
2021/05/12 04:13:01;;;;;;;6.40;4.67;;;15.90;99.90;;;;;;5051374;28;20526;-49
2021/05/12 04:15:27;;;;;;;7.90;4.43;;;16.10;99.90;;;;;;5052206;28;20449;-48
2021/05/12 04:17:54;;;;;;;7.63;4.60;;;16.40;99.90;;;;;;5053215;28;20445;-46
2021/05/12 04:20:21;;;;;;;4.37;3.90;;;16.00;99.90;;;;;;5058851;28;20436;-47
2021/05/12 04:22:48;;;;;;;7.10;4.60;;;16.30;99.90;;;;;;5058188;28;20426;-47
2021/05/12 04:25:17;;;;;;;5.07;4.47;;;16.20;99.90;;;;;;5057937;28;20476;-48
2021/05/12 04:27:43;;;;;;;7.70;4.00;;;16.40;99.90;;;;;;5057910;28;20540;-48
2021/05/12 04:30:13;;;;;;;7.90;4.37;;;16.20;99.90;;;;;;5057874;28;20462;-49
2021/05/12 04:32:40;;;;;;;5.70;4.40;;;16.40;99.90;;;;;;5057635;28;20439;-48
2021/05/12 04:35:08;;;;;;;5.90;4.20;;;16.40;99.90;;;;;;5057956;28;20431;-48
2021/05/12 04:37:34;;;;;;;7.97;5.03;;;16.30;99.90;;;;;;5058025;28;20792;-48
2021/05/12 04:40:00;;;;;;;9.57;5.47;;;16.30;99.90;;;;;;5058637;28;20850;-48
2021/05/12 04:42:27;;;;;;;5.77;4.33;;;16.40;99.90;;;;;;5057420;28;20432;-48
2021/05/12 04:44:53;;;;;;;5.60;4.17;;;16.60;99.90;;;;;;5057800;28;20467;-48
2021/05/12 04:47:20;;;;;;;6.90;5.40;;;16.20;99.90;;;;;;5057752;28;20441;-48
2021/05/12 04:49:47;;;;;;;6.57;5.27;;;16.50;99.90;;;;;;5057562;28;20772;-48
2021/05/12 04:52:13;;;;;;;10.83;4.83;;;16.00;99.90;;;;;;5057648;28;20447;-47
2021/05/12 04:54:40;;;;;;;7.27;4.67;;;16.60;99.90;;;;;;5057471;28;20501;-47
2021/05/12 04:57:07;;;;;;;6.07;4.30;;;16.80;99.90;;;;;;5057294;28;20431;-48
2021/05/12 04:59:34;;;;;;;5.10;4.03;;;16.60;99.90;;;;;;5057900;28;20473;-48
2021/05/12 05:02:02;;;;;;;5.60;4.27;;;16.60;99.90;;;;;;5057877;28;20748;-48
2021/05/12 05:04:29;;;;;;;4.77;4.37;;;16.80;99.90;;;;;;5057310;28;20442;-48
2021/05/12 05:06:55;;;;;;;5.13;4.60;;;16.40;99.90;;;;;;5057837;28;20488;-48
2021/05/12 05:09:22;;;;;;;7.93;5.30;;;16.80;99.90;;;;;;5057519;28;20478;-48
2021/05/12 05:11:48;;;;;;;9.70;5.27;;;16.80;99.90;;;;;;5057649;28;20504;-49
2021/05/12 05:14:14;;;;;;;5.80;3.93;;;16.30;99.90;;;;;;5058846;28;20435;-48
2021/05/12 05:16:41;;;;;;;6.33;4.20;;;16.40;99.90;;;;;;5057881;28;20430;-48
2021/05/12 05:19:07;;;;;;;6.93;4.70;;;16.20;99.90;;;;;;5057513;28;20459;-48
2021/05/12 05:21:34;;;;;;;7.37;4.90;;;16.30;99.90;;;;;;5057260;28;20480;-48
2021/05/12 05:24:00;;;;;;;14.87;5.10;;;16.50;99.90;;;;;;5057117;28;20442;-48
2021/05/12 05:26:27;;;;;;;7.47;4.87;;;16.50;99.90;;;;;;5056822;28;20489;-47
2021/05/12 05:28:53;;;;;;;6.23;4.40;;;16.50;99.90;;;;;;5057827;28;20964;-49
2021/05/12 05:31:19;;;;;;;8.90;4.93;;;16.80;99.90;;;;;;5054339;28;20443;-49
2021/05/12 05:34:04;;;;;;;6.27;4.27;;;16.60;99.90;;;;;;5054364;28;20486;-49
2021/05/12 05:36:50;;;;;;;6.50;4.70;;;16.50;99.90;;;;;;5054255;28;20426;-49
2021/05/12 05:39:37;;;;;;;6.17;4.77;;;16.40;99.90;;;;;;5054955;28;20453;-49
2021/05/12 05:42:23;;;;;;;7.63;4.30;;;16.40;99.90;;;;;;5053968;28;20475;-48
2021/05/12 05:45:08;;;;;;;8.47;5.20;;;16.50;99.90;;;;;;5054290;28;20837;-50
2021/05/12 05:48:13;;;;;;;7.97;5.33;;;16.80;99.90;;;;;;4973101;28;20464;-50
2021/05/12 05:51:12;;;;;;;9.00;5.00;;;16.40;99.90;;;;;;4963216;28;20546;-51
2021/05/12 05:53:57;;;;;;;7.00;4.90;;;16.30;99.90;;;;;;5039124;28;20461;-50
2021/05/12 05:57:04;;;;;;;8.37;4.90;;;16.30;99.90;;;;;;4992303;28;20602;-49
2021/05/12 05:59:49;;;;;;;5.87;4.77;;;16.30;99.90;;;;;;5051559;28;20507;-50
2021/05/12 06:02:35;;;;;;;7.17;5.40;;;16.30;99.90;;;;;;5053599;28;20469;-50
2021/05/12 06:05:20;;;;;;;5.83;4.50;;;16.60;99.90;;;;;;5053626;28;20470;-50
2021/05/12 06:08:05;;;;;;;6.43;5.10;;;16.60;99.90;;;;;;5054093;28;20422;-49
2021/05/12 06:10:51;;;;;;;11.17;5.40;;;16.60;99.90;;;;;;5054310;28;20429;-49
2021/05/12 06:13:55;;;;;;;7.37;5.23;;;16.60;99.90;;;;;;4972562;28;20523;-50
2021/05/12 06:16:40;;;;;;;7.30;6.10;;;16.30;99.90;;;;;;4972825;28;21022;-49
2021/05/12 06:19:25;;;;;;;7.00;6.20;;;16.50;99.90;;;;;;5031168;28;20457;-48
2021/05/12 06:22:10;;;;;;;6.27;5.17;;;16.70;99.90;;;;;;5053713;28;20454;-50
2021/05/12 06:24:55;;;;;;;5.60;5.10;;;16.60;99.90;;;;;;5053586;28;21006;-50
2021/05/12 06:27:41;;;;;;;6.83;5.20;;;16.60;99.90;;;;;;5054143;28;20435;-49
2021/05/12 06:30:37;;;;;;;6.70;5.63;;;16.90;99.90;;;;;;4999935;28;20445;-50
2021/05/12 06:33:22;;;;;;;8.30;5.83;;;17.10;99.90;;;;;;5054083;28;20436;-50
2021/05/12 06:36:07;;;;;;;6.73;6.03;;;16.90;99.90;;;;;;5053525;28;20430;-49
2021/05/12 06:38:52;;;;;;;13.83;5.40;;;17.00;99.90;;;;;;5052957;28;20483;-49
2021/05/12 06:41:19;;;;;;;10.93;7.67;;;16.60;99.90;;;;;;5051739;28;20432;-49
2021/05/12 06:43:48;;;;;;;10.70;7.13;;;17.10;99.90;;;;;;5052689;28;20442;-50
2021/05/12 06:46:15;;;;;;;10.30;7.87;;;16.40;99.90;;;;;;5052814;28;20523;-51
2021/05/12 06:48:41;;;;;;;13.30;9.43;;;17.40;99.90;;;;;;5052889;28;20505;-50
2021/05/12 06:51:07;;;;;;;9.73;7.80;;;17.00;99.90;;;;;;5053731;28;20461;-50
2021/05/12 06:53:35;;;;;;;8.37;7.50;;;16.90;99.90;;;;;;5052867;28;20534;-50
2021/05/12 06:56:05;;;;;;;7.93;7.20;;;16.90;99.90;;;;;;5053069;28;20469;-50
2021/05/12 06:58:32;;;;;;;11.80;7.50;;;17.30;99.90;;;;;;5034908;28;20454;-50
2021/05/12 07:00:59;;;;;;;10.73;8.20;;;17.10;99.90;;;;;;5052858;28;20445;-50
2021/05/12 07:03:26;;;;;;;8.80;7.40;;;17.50;99.90;;;;;;5052376;28;20437;-49
2021/05/12 07:05:54;;;;;;;16.30;7.73;;;17.00;99.90;;;;;;5052399;28;20545;-50
2021/05/12 07:08:20;;;;;;;8.67;6.43;;;17.50;99.90;;;;;;5052604;28;20460;-49
2021/05/12 07:10:46;;;;;;;10.43;8.50;;;17.50;99.90;;;;;;5052493;28;20440;-50
2021/05/12 07:13:13;;;;;;;10.20;8.27;;;17.20;99.90;;;;;;5052079;28;20432;-50
2021/05/12 07:15:39;;;;;;;8.77;7.83;;;17.20;99.90;;;;;;5052225;28;20435;-51
2021/05/12 07:18:06;;;;;;;9.40;7.70;;;17.30;99.90;;;;;;5052303;28;20519;-48
2021/05/12 07:20:33;;;;;;;10.00;7.10;;;17.20;99.90;;;;;;5052282;28;20445;-48
2021/05/12 07:23:03;;;;;;;7.90;7.20;;;16.80;99.90;;;;;;5052320;28;20819;-50
2021/05/12 07:25:29;;;;;;;14.57;12.90;;;16.90;99.90;;;;;;5052099;28;20470;-49
2021/05/12 07:27:56;;;;;;;20.80;9.40;;;16.90;99.90;;;;;;5052102;28;20439;-50
2021/05/12 07:30:22;;;;;;;9.10;7.90;;;17.00;99.90;;;;;;5034339;28;20443;-49
2021/05/12 07:32:49;;;;;;;10.73;9.60;;;17.00;99.90;;;;;;5051729;28;20489;-49
2021/05/12 07:35:16;;;;;;;8.20;7.40;;;16.90;99.90;;;;;;5051918;28;20871;-49
2021/05/12 07:37:43;;;;;;;9.43;8.43;;;17.30;99.90;;;;;;5034068;28;20527;-49
2021/05/12 07:40:11;;;;;;;9.87;8.97;;;17.20;99.90;;;;;;5051989;28;20453;-49
2021/05/12 07:42:40;;;;;;;9.70;7.97;;;17.40;99.90;;;;;;5033498;28;20479;-49
2021/05/12 07:45:08;;;;;;;9.43;8.50;;;17.10;99.90;;;;;;5052490;28;20468;-49
2021/05/12 07:47:34;;;;;;;10.30;9.30;;;17.40;99.90;;;;;;5053105;28;20586;-49
2021/05/12 07:50:00;;;;;;;8.50;7.63;;;17.30;99.90;;;;;;5052160;28;20843;-50
2021/05/12 07:52:28;;;;;;;10.57;9.57;;;17.30;99.90;;;;;;5051050;28;20458;-50
2021/05/12 07:54:54;;;;;;;14.83;8.50;;;17.00;99.90;;;;;;5052076;28;20449;-50
2021/05/12 07:57:22;;;;;;;10.90;9.80;;;17.00;99.90;;;;;;5051899;28;20434;-50
2021/05/12 07:59:48;;;;;;;12.17;8.60;;;17.00;99.90;;;;;;5051955;28;20452;-50
2021/05/12 08:02:15;;;;;;;9.57;8.67;;;17.30;99.90;;;;;;5052133;28;20429;-50
2021/05/12 08:04:41;;;;;;;9.00;8.13;;;16.90;99.90;;;;;;5051852;28;20512;-50
2021/05/12 08:07:07;;;;;;;13.90;10.70;;;17.00;99.90;;;;;;5052179;28;20435;-49
2021/05/12 08:09:35;;;;;;;9.23;8.43;;;17.30;99.90;;;;;;5034467;28;20479;-50
2021/05/12 08:12:01;;;;;;;13.77;11.00;;;17.20;99.90;;;;;;5053126;28;20531;-50
2021/05/12 08:14:28;;;;;;;15.30;11.13;;;17.40;99.90;;;;;;5034674;28;20808;-49
2021/05/12 08:16:54;;;;;;;14.83;12.43;;;17.30;99.90;;;;;;5051552;28;20424;-49
2021/05/12 08:19:21;;;;;;;16.13;13.30;;;17.40;99.90;;;;;;5052327;28;20463;-51
2021/05/12 08:21:48;;;;;;;14.17;12.10;;;17.30;99.90;;;;;;5052195;28;20436;-50
2021/05/12 08:24:15;;;;;;;14.43;12.97;;;17.50;99.90;;;;;;5033882;28;20464;-49
2021/05/12 08:26:42;;;;;;;14.70;13.20;;;17.30;99.90;;;;;;5052526;28;21005;-51
2021/05/12 08:29:08;;;;;;;11.77;10.73;;;17.50;99.90;;;;;;5052229;28;20474;-49
2021/05/12 08:31:38;;;;;;;12.93;11.60;;;17.80;99.90;;;;;;5051132;28;20436;-49
2021/05/12 08:34:05;;;;;;;17.40;12.20;;;17.50;99.90;;;;;;5051793;28;20430;-49
2021/05/12 08:36:33;;;;;;;14.27;12.83;;;17.70;99.90;;;;;;5051895;28;20436;-49
2021/05/12 08:38:59;;;;;;;14.13;12.47;;;17.40;99.90;;;;;;5051670;28;20456;-49
2021/05/12 08:41:26;;;;;;;15.57;13.90;;;17.40;99.90;;;;;;5051745;28;20748;-49
2021/05/12 08:43:54;;;;;;;17.53;15.20;;;17.50;99.90;;;;;;5051209;28;20504;-49
2021/05/12 08:46:21;;;;;;;18.00;14.27;;;17.30;99.90;;;;;;5033219;28;20476;-49
2021/05/12 08:48:48;;;;;;;15.03;13.33;;;17.00;99.90;;;;;;5050962;28;20848;-50
2021/05/12 08:51:14;;;;;;;17.53;14.93;;;17.40;99.90;;;;;;5051684;28;20846;-50
2021/05/12 08:53:43;;;;;;;17.53;15.47;;;17.60;99.90;;;;;;5051149;28;20434;-49
2021/05/12 08:56:09;;;;;;;18.63;15.47;;;17.40;99.90;;;;;;5051050;28;20429;-50
2021/05/12 08:58:36;;;;;;;17.53;15.73;;;17.00;99.90;;;;;;5033638;28;20463;-50
2021/05/12 09:01:03;;;;;;;17.07;15.30;;;17.30;99.90;;;;;;5052691;28;20937;-49
2021/05/12 09:03:30;;;;;;;22.80;18.77;;;17.20;99.90;;;;;;5034200;28;20870;-49
2021/05/12 09:05:57;;;;;;;19.73;15.87;;;17.40;99.90;;;;;;5053103;28;21045;-49
2021/05/12 09:08:26;;;;;;;20.93;16.73;;;17.70;99.90;;;;;;5054410;28;20818;-49
2021/05/12 09:10:53;;;;;;;17.97;16.07;;;17.30;99.90;;;;;;5036974;28;20959;-50
2021/05/12 09:13:30;;;;;;;17.37;15.53;;;16.90;99.90;;;;;;5054340;28;20515;-50
2021/05/12 09:16:20;;;;;;;19.33;16.70;;;17.50;99.90;;;;;;5054791;28;20454;-49
2021/05/12 09:18:47;;;;;;;20.20;15.77;;;17.50;99.90;;;;;;5054740;28;20940;-52
2021/05/12 09:21:14;;;;;;;19.33;16.83;;;17.40;99.90;;;;;;5054683;28;20454;-49
2021/05/12 09:23:43;;;;;;;17.67;15.87;;;17.10;99.90;;;;;;5054146;28;20877;-51
2021/05/12 09:26:14;;;;;;;35.10;31.07;;;17.70;99.90;;;;;;5054652;28;20475;-49
2021/05/12 09:28:42;;;;;;;20.10;16.83;;;17.70;99.90;;;;;;5036427;28;20478;-49
2021/05/12 09:31:11;;;;;;;17.83;16.00;;;17.50;99.90;;;;;;5054250;28;20943;-49
2021/05/12 09:33:40;;;;;;;17.53;15.60;;;17.70;99.90;;;;;;5054445;28;20432;-50
2021/05/12 09:36:08;;;;;;;21.07;18.00;;;17.60;99.90;;;;;;5036641;28;20514;-50
2021/05/12 09:38:35;;;;;;;16.40;14.70;;;17.40;99.90;;;;;;5054363;28;20456;-49
2021/05/12 09:41:04;;;;;;;17.20;15.60;;;17.60;99.90;;;;;;5054236;28;20458;-49
2021/05/12 09:43:32;;;;;;;19.23;17.00;;;17.40;99.90;;;;;;5036084;28;20453;-50
2021/05/12 09:46:18;;;;;;;19.03;15.70;;;17.40;99.90;;;;;;5054532;28;20889;-50
2021/05/12 09:49:06;;;;;;;20.27;17.37;;;17.50;99.90;;;;;;5054062;28;20515;-50
2021/05/12 09:51:35;;;;;;;19.10;17.10;;;17.40;99.90;;;;;;5054097;28;20961;-49
2021/05/12 09:54:07;;;;;;;18.10;16.27;;;17.80;99.90;;;;;;5054412;28;20428;-49
2021/05/12 09:56:45;;;;;;;19.13;17.10;;;17.60;99.90;;;;;;5054294;28;20436;-49
2021/05/12 09:59:14;;;;;;;23.27;18.70;;;17.60;99.90;;;;;;5053956;28;20460;-49
2021/05/12 10:01:51;;;;;;;23.50;18.13;;;18.20;99.90;;;;;;5054087;28;20437;-50
2021/05/12 10:04:35;;;;;;;19.73;17.37;;;18.00;99.90;;;;;;5053740;28;20447;-49
2021/05/12 10:07:12;;;;;;;21.97;18.57;;;17.80;99.90;;;;;;5054265;28;20480;-49
2021/05/12 10:09:38;;;;;;;22.60;18.97;;;17.90;99.90;;;;;;5054901;28;20451;-49
2021/05/12 10:12:07;;;;;;;26.30;20.10;;;18.10;99.90;;;;;;5036910;28;20511;-50
2021/05/12 10:14:34;;;;;;;23.63;19.73;;;17.90;99.90;;;;;;5054870;28;20498;-50
2021/05/12 10:17:02;;;;;;;20.17;18.00;;;17.90;99.90;;;;;;5055314;28;20433;-50
2021/05/12 10:19:29;;;;;;;22.93;19.97;;;17.70;99.90;;;;;;5054262;28;20453;-50
2021/05/12 10:21:59;;;;;;;22.80;18.93;;;17.90;99.90;;;;;;5035770;28;20951;-51
2021/05/12 10:24:26;;;;;;;22.67;20.10;;;17.70;99.90;;;;;;5054182;28;20445;-51
2021/05/12 10:26:52;;;;;;;20.70;17.40;;;17.50;99.90;;;;;;5053614;28;20481;-49
2021/05/12 10:29:21;;;;;;;22.40;19.97;;;17.40;99.90;;;;;;5035629;28;20465;-49
2021/05/12 10:31:47;;;;;;;21.23;18.93;;;17.40;99.90;;;;;;5053183;28;20441;-49
2021/05/12 10:34:18;;;;;;;24.33;19.37;;;17.40;99.90;;;;;;5054025;28;20441;-49
2021/05/12 10:36:44;;;;;;;23.47;18.93;;;17.50;99.90;;;;;;5053527;28;20505;-48
2021/05/12 10:39:13;;;;;;;24.83;20.47;;;17.40;99.90;;;;;;5053119;28;20519;-50
2021/05/12 10:41:46;;;;;;;25.17;21.20;;;17.30;99.90;;;;;;5053510;28;20803;-49
2021/05/12 10:44:17;;;;;;;22.53;20.13;;;17.60;99.90;;;;;;5034915;28;20457;-49
2021/05/12 10:46:47;;;;;;;23.90;21.37;;;18.10;99.90;;;;;;5053401;28;20507;-50
2021/05/12 10:49:22;;;;;;;25.30;20.73;;;17.90;99.90;;;;;;5053068;28;20505;-50
2021/05/12 10:51:49;;;;;;;22.83;19.20;;;17.70;99.90;;;;;;5053257;28;20432;-49
2021/05/12 10:54:37;;;;;;;22.60;20.20;;;17.80;99.90;;;;;;5052834;28;20434;-50
2021/05/12 10:57:04;;;;;;;22.87;19.73;;;17.30;99.90;;;;;;5053120;28;20444;-50
2021/05/12 10:59:31;;;;;;;23.00;19.67;;;18.20;99.90;;;;;;5052865;28;20544;-50
2021/05/12 11:01:57;;;;;;;22.53;19.33;;;17.90;99.90;;;;;;5053697;28;20525;-49
2021/05/12 11:04:25;;;;;;;22.70;19.60;;;18.40;99.90;;;;;;5053236;28;20430;-52
2021/05/12 11:07:01;;;;;;;29.10;21.33;;;18.30;99.90;;;;;;5034864;28;20884;-48
2021/05/12 11:09:49;;;;;;;22.10;19.67;;;18.50;99.90;;;;;;5052996;28;20444;-50
2021/05/12 11:12:22;;;;;;;23.43;20.10;;;18.30;99.90;;;;;;5050088;28;20483;-50
2021/05/12 11:14:59;;;;;;;23.43;20.63;;;18.40;99.90;;;;;;5052436;28;20451;-49
2021/05/12 11:17:49;;;;;;;23.17;20.37;;;18.30;99.90;;;;;;5052513;28;20430;-50
2021/05/12 11:20:21;;;;;;;22.53;17.50;;;18.60;99.90;;;;;;5052317;28;20449;-50
2021/05/12 11:22:50;;;;;;;22.00;19.03;;;18.20;99.90;;;;;;5052155;28;20438;-50
2021/05/12 11:25:21;;;;;;;23.20;19.53;;;18.20;99.90;;;;;;5052298;28;20909;-49
2021/05/12 11:33:40;;;;;;;22.50;20.23;;;18.40;99.90;;;;;;5034587;28;20483;-50
2021/05/12 11:36:10;;;;;;;21.27;19.13;;;18.10;99.90;;;;;;5052077;28;20434;-52
2021/05/12 11:38:38;;;;;;;21.50;19.17;;;18.30;99.90;;;;;;5033917;28;20472;-49
2021/05/12 11:41:07;;;;;;;22.37;19.87;;;17.70;99.90;;;;;;5052283;28;20526;-51
2021/05/12 11:43:37;;;;;;;20.90;18.80;;;18.30;99.90;;;;;;5051769;28;20441;-51
2021/05/12 11:46:09;;;;;;;20.70;18.47;;;18.30;99.90;;;;;;5052373;28;20492;-50
2021/05/12 11:48:43;;;;;;;27.13;20.90;;;18.50;99.90;;;;;;5051684;28;20463;-51
2021/05/12 11:51:11;;;;;;;23.00;18.93;;;18.00;99.90;;;;;;5052048;28;20771;-50
2021/05/12 11:53:40;;;;;;;25.00;20.60;;;18.20;99.90;;;;;;5051165;28;20429;-52
2021/05/12 11:56:07;;;;;;;22.43;19.80;;;18.00;99.90;;;;;;5051761;28;20941;-51
2021/05/12 11:58:34;;;;;;;24.00;21.43;;;17.80;99.90;;;;;;5052476;28;20824;-49
2021/05/12 12:01:09;;;;;;;23.67;21.10;;;17.80;99.90;;;;;;5051815;28;20531;-50
2021/05/12 12:03:41;;;;;;;25.17;20.70;;;17.80;99.90;;;;;;5051941;28;20545;-52
2021/05/12 12:06:08;;;;;;;21.50;18.87;;;17.90;99.90;;;;;;5034305;28;20985;-50
2021/05/12 12:08:36;;;;;;;24.57;20.07;;;18.10;99.90;;;;;;5051690;28;20488;-49
2021/05/12 12:11:09;;;;;;;23.57;20.43;;;17.40;99.90;;;;;;5052050;28;20773;-50
2021/05/12 12:13:36;;;;;;;27.77;20.67;;;17.60;99.90;;;;;;5051106;28;20438;-49
2021/05/12 12:16:03;;;;;;;23.40;19.47;;;17.70;99.90;;;;;;5051572;28;20445;-50
2021/05/12 12:18:31;;;;;;;20.37;18.17;;;17.80;99.90;;;;;;5051560;28;20445;-51
2021/05/12 12:20:58;;;;;;;22.20;19.53;;;17.80;99.90;;;;;;5051844;28;20437;-49
2021/05/12 12:23:29;;;;;;;20.97;17.80;;;18.10;99.90;;;;;;5051536;28;20445;-51
2021/05/12 12:26:16;;;;;;;20.03;14.90;;;17.70;99.90;;;;;;5051810;28;20484;-50
2021/05/12 12:28:48;;;;;;;20.80;15.73;;;17.50;99.90;;;;;;5051973;28;20462;-49
2021/05/12 12:31:18;;;;;;;16.77;15.07;;;18.00;99.90;;;;;;5052347;28;20491;-50
2021/05/12 12:34:09;;;;;;;18.03;16.00;;;17.90;99.90;;;;;;5052442;28;20445;-49
2021/05/12 12:36:49;;;;;;;19.90;15.57;;;17.80;99.90;;;;;;5052216;28;20442;-48
2021/05/12 12:39:16;;;;;;;18.03;15.40;;;18.10;99.90;;;;;;5053551;28;20463;-52
2021/05/12 12:41:48;;;;;;;19.60;17.67;;;17.60;99.90;;;;;;5055315;28;20764;-50
2021/05/12 12:44:14;;;;;;;18.20;16.27;;;17.70;99.90;;;;;;5055329;28;20500;-49
2021/05/12 12:46:41;;;;;;;20.70;16.83;;;17.70;99.90;;;;;;5055860;28;20538;-50
2021/05/12 12:49:07;;;;;;;21.47;18.67;;;18.00;99.90;;;;;;5039363;28;20570;-51
2021/05/12 12:51:35;;;;;;;20.10;17.93;;;17.70;99.90;;;;;;5055348;28;20437;-51
2021/05/12 12:54:02;;;;;;;19.97;17.93;;;17.60;99.90;;;;;;5037171;28;20444;-50
2021/05/12 12:56:28;;;;;;;20.30;17.50;;;17.90;99.90;;;;;;5037497;28;20484;-51